sensor_id;sensor_type;location;lat;lon;timestamp;P1;durP1;ratioP1;P2;durP2;ratioP2
21876;SDS011;11103;43.788;23.710;2022-12-07T00:01:35;44.77;;;22.13;;
21876;SDS011;11103;43.788;23.710;2022-12-07T00:04:05;38.33;;;21.67;;
21876;SDS011;11103;43.788;23.710;2022-12-07T00:08:59;38.63;;;20.93;;
21876;SDS011;11103;43.788;23.710;2022-12-07T00:11:24;38.50;;;19.77;;
21876;SDS011;11103;43.788;23.710;2022-12-07T00:13:51;34.73;;;19.87;;
21876;SDS011;11103;43.788;23.710;2022-12-07T00:16:19;37.30;;;21.23;;
21876;SDS011;11103;43.788;23.710;2022-12-07T00:18:46;35.83;;;19.53;;
21876;SDS011;11103;43.788;23.710;2022-12-07T00:21:12;37.03;;;19.27;;
21876;SDS011;11103;43.788;23.710;2022-12-07T00:23:39;37.97;;;19.90;;
21876;SDS011;11103;43.788;23.710;2022-12-07T00:26:09;37.07;;;20.33;;
21876;SDS011;11103;43.788;23.710;2022-12-07T00:28:39;33.87;;;19.00;;
21876;SDS011;11103;43.788;23.710;2022-12-07T00:31:06;35.30;;;20.47;;
21876;SDS011;11103;43.788;23.710;2022-12-07T00:33:33;36.50;;;20.10;;
21876;SDS011;11103;43.788;23.710;2022-12-07T00:36:00;35.00;;;19.03;;
21876;SDS011;11103;43.788;23.710;2022-12-07T00:38:29;38.70;;;18.20;;
21876;SDS011;11103;43.788;23.710;2022-12-07T00:41:00;37.87;;;21.60;;
21876;SDS011;11103;43.788;23.710;2022-12-07T00:43:28;44.30;;;25.03;;
21876;SDS011;11103;43.788;23.710;2022-12-07T00:45:54;39.23;;;21.47;;
21876;SDS011;11103;43.788;23.710;2022-12-07T00:48:20;37.87;;;21.60;;
21876;SDS011;11103;43.788;23.710;2022-12-07T00:50:46;34.57;;;20.77;;
21876;SDS011;11103;43.788;23.710;2022-12-07T00:53:12;45.33;;;25.27;;
21876;SDS011;11103;43.788;23.710;2022-12-07T00:55:37;44.53;;;25.80;;
21876;SDS011;11103;43.788;23.710;2022-12-07T00:58:04;39.57;;;24.77;;
21876;SDS011;11103;43.788;23.710;2022-12-07T01:00:30;40.30;;;23.73;;
21876;SDS011;11103;43.788;23.710;2022-12-07T01:02:56;37.60;;;21.37;;
21876;SDS011;11103;43.788;23.710;2022-12-07T01:05:21;34.57;;;19.47;;
21876;SDS011;11103;43.788;23.710;2022-12-07T01:07:47;33.77;;;19.73;;
21876;SDS011;11103;43.788;23.710;2022-12-07T01:10:13;32.57;;;19.53;;
21876;SDS011;11103;43.788;23.710;2022-12-07T01:12:39;36.57;;;20.73;;
21876;SDS011;11103;43.788;23.710;2022-12-07T01:15:05;51.23;;;26.53;;
21876;SDS011;11103;43.788;23.710;2022-12-07T01:17:32;66.77;;;30.33;;
21876;SDS011;11103;43.788;23.710;2022-12-07T01:19:57;58.27;;;28.17;;
21876;SDS011;11103;43.788;23.710;2022-12-07T01:22:23;49.20;;;24.47;;
21876;SDS011;11103;43.788;23.710;2022-12-07T01:24:48;40.40;;;20.53;;
21876;SDS011;11103;43.788;23.710;2022-12-07T01:27:14;35.97;;;19.20;;
21876;SDS011;11103;43.788;23.710;2022-12-07T01:29:40;35.87;;;20.13;;
21876;SDS011;11103;43.788;23.710;2022-12-07T01:32:05;33.27;;;19.40;;
21876;SDS011;11103;43.788;23.710;2022-12-07T01:34:30;34.10;;;18.90;;
21876;SDS011;11103;43.788;23.710;2022-12-07T01:36:56;34.07;;;19.03;;
21876;SDS011;11103;43.788;23.710;2022-12-07T01:39:22;34.83;;;19.03;;
21876;SDS011;11103;43.788;23.710;2022-12-07T01:41:48;38.60;;;20.10;;
21876;SDS011;11103;43.788;23.710;2022-12-07T01:44:15;41.00;;;21.13;;
21876;SDS011;11103;43.788;23.710;2022-12-07T01:46:47;43.80;;;21.13;;
21876;SDS011;11103;43.788;23.710;2022-12-07T01:49:22;38.70;;;20.40;;
21876;SDS011;11103;43.788;23.710;2022-12-07T01:51:52;33.93;;;19.80;;
21876;SDS011;11103;43.788;23.710;2022-12-07T01:54:23;49.33;;;25.77;;
21876;SDS011;11103;43.788;23.710;2022-12-07T01:56:50;47.17;;;24.33;;
21876;SDS011;11103;43.788;23.710;2022-12-07T01:59:18;36.57;;;20.70;;
21876;SDS011;11103;43.788;23.710;2022-12-07T02:01:49;36.17;;;20.17;;
21876;SDS011;11103;43.788;23.710;2022-12-07T02:04:15;36.23;;;19.30;;
21876;SDS011;11103;43.788;23.710;2022-12-07T02:06:40;37.53;;;21.03;;
21876;SDS011;11103;43.788;23.710;2022-12-07T02:09:07;33.13;;;19.07;;
21876;SDS011;11103;43.788;23.710;2022-12-07T02:11:33;37.20;;;20.70;;
21876;SDS011;11103;43.788;23.710;2022-12-07T02:13:59;37.73;;;21.23;;
21876;SDS011;11103;43.788;23.710;2022-12-07T02:19:22;35.83;;;19.13;;
21876;SDS011;11103;43.788;23.710;2022-12-07T02:21:56;30.83;;;17.43;;
21876;SDS011;11103;43.788;23.710;2022-12-07T02:30:04;35.80;;;19.83;;
21876;SDS011;11103;43.788;23.710;2022-12-07T02:35:32;34.63;;;19.00;;
21876;SDS011;11103;43.788;23.710;2022-12-07T02:41:10;33.07;;;18.20;;
21876;SDS011;11103;43.788;23.710;2022-12-07T02:44:24;33.03;;;18.60;;
21876;SDS011;11103;43.788;23.710;2022-12-07T02:46:33;33.63;;;17.40;;
21876;SDS011;11103;43.788;23.710;2022-12-07T02:49:03;33.03;;;17.63;;
21876;SDS011;11103;43.788;23.710;2022-12-07T02:51:30;39.03;;;19.93;;
21876;SDS011;11103;43.788;23.710;2022-12-07T02:53:56;37.60;;;19.90;;
21876;SDS011;11103;43.788;23.710;2022-12-07T03:02:15;53.67;;;27.03;;
21876;SDS011;11103;43.788;23.710;2022-12-07T03:07:39;41.93;;;21.60;;
21876;SDS011;11103;43.788;23.710;2022-12-07T03:15:54;43.07;;;23.10;;
21876;SDS011;11103;43.788;23.710;2022-12-07T03:18:21;47.00;;;23.60;;
21876;SDS011;11103;43.788;23.710;2022-12-07T03:20:51;47.70;;;22.90;;
21876;SDS011;11103;43.788;23.710;2022-12-07T03:23:20;45.00;;;23.70;;
21876;SDS011;11103;43.788;23.710;2022-12-07T03:25:50;38.43;;;20.40;;
21876;SDS011;11103;43.788;23.710;2022-12-07T03:28:23;39.43;;;20.67;;
21876;SDS011;11103;43.788;23.710;2022-12-07T03:33:42;42.10;;;21.00;;
21876;SDS011;11103;43.788;23.710;2022-12-07T03:36:16;41.93;;;21.23;;
21876;SDS011;11103;43.788;23.710;2022-12-07T03:38:53;43.10;;;21.43;;
21876;SDS011;11103;43.788;23.710;2022-12-07T03:41:26;44.47;;;20.93;;
21876;SDS011;11103;43.788;23.710;2022-12-07T03:43:55;37.23;;;20.17;;
21876;SDS011;11103;43.788;23.710;2022-12-07T03:54:30;40.40;;;21.87;;
21876;SDS011;11103;43.788;23.710;2022-12-07T03:57:02;37.40;;;21.77;;
21876;SDS011;11103;43.788;23.710;2022-12-07T03:59:29;37.97;;;21.03;;
21876;SDS011;11103;43.788;23.710;2022-12-07T04:01:56;42.57;;;20.37;;
21876;SDS011;11103;43.788;23.710;2022-12-07T04:04:26;36.73;;;18.53;;
21876;SDS011;11103;43.788;23.710;2022-12-07T04:06:53;40.67;;;19.67;;
21876;SDS011;11103;43.788;23.710;2022-12-07T04:09:18;38.97;;;20.57;;
21876;SDS011;11103;43.788;23.710;2022-12-07T04:11:44;38.13;;;19.40;;
21876;SDS011;11103;43.788;23.710;2022-12-07T04:14:09;36.73;;;19.47;;
21876;SDS011;11103;43.788;23.710;2022-12-07T04:16:48;36.53;;;19.40;;
21876;SDS011;11103;43.788;23.710;2022-12-07T04:19:16;35.50;;;19.80;;
21876;SDS011;11103;43.788;23.710;2022-12-07T04:21:45;38.33;;;20.03;;
21876;SDS011;11103;43.788;23.710;2022-12-07T04:24:11;42.07;;;19.23;;
21876;SDS011;11103;43.788;23.710;2022-12-07T04:26:38;39.90;;;19.27;;
21876;SDS011;11103;43.788;23.710;2022-12-07T04:29:04;42.07;;;20.87;;
21876;SDS011;11103;43.788;23.710;2022-12-07T04:31:30;40.43;;;21.53;;
21876;SDS011;11103;43.788;23.710;2022-12-07T04:33:55;39.97;;;21.37;;
21876;SDS011;11103;43.788;23.710;2022-12-07T04:36:21;38.40;;;21.53;;
21876;SDS011;11103;43.788;23.710;2022-12-07T04:38:46;43.00;;;20.83;;
21876;SDS011;11103;43.788;23.710;2022-12-07T04:41:12;41.80;;;19.03;;
21876;SDS011;11103;43.788;23.710;2022-12-07T04:43:38;39.73;;;21.03;;
21876;SDS011;11103;43.788;23.710;2022-12-07T04:46:03;38.80;;;20.93;;
21876;SDS011;11103;43.788;23.710;2022-12-07T04:48:29;45.73;;;23.63;;
21876;SDS011;11103;43.788;23.710;2022-12-07T04:50:54;43.80;;;22.23;;
21876;SDS011;11103;43.788;23.710;2022-12-07T04:53:20;41.87;;;22.03;;
21876;SDS011;11103;43.788;23.710;2022-12-07T04:55:46;51.07;;;25.23;;
21876;SDS011;11103;43.788;23.710;2022-12-07T04:58:12;45.60;;;23.43;;
21876;SDS011;11103;43.788;23.710;2022-12-07T05:00:38;49.53;;;24.47;;
21876;SDS011;11103;43.788;23.710;2022-12-07T05:03:04;51.77;;;25.53;;
21876;SDS011;11103;43.788;23.710;2022-12-07T05:05:29;78.03;;;34.17;;
21876;SDS011;11103;43.788;23.710;2022-12-07T05:07:55;98.77;;;39.03;;
21876;SDS011;11103;43.788;23.710;2022-12-07T05:10:20;81.37;;;37.80;;
21876;SDS011;11103;43.788;23.710;2022-12-07T05:12:46;80.97;;;33.13;;
21876;SDS011;11103;43.788;23.710;2022-12-07T05:15:12;89.47;;;36.27;;
21876;SDS011;11103;43.788;23.710;2022-12-07T05:17:38;79.90;;;33.47;;
21876;SDS011;11103;43.788;23.710;2022-12-07T05:20:04;80.27;;;34.10;;
21876;SDS011;11103;43.788;23.710;2022-12-07T05:22:30;86.23;;;34.03;;
21876;SDS011;11103;43.788;23.710;2022-12-07T05:24:55;96.90;;;36.83;;
21876;SDS011;11103;43.788;23.710;2022-12-07T05:27:21;100.27;;;39.27;;
21876;SDS011;11103;43.788;23.710;2022-12-07T05:29:46;106.43;;;43.23;;
21876;SDS011;11103;43.788;23.710;2022-12-07T05:32:12;115.27;;;45.20;;
21876;SDS011;11103;43.788;23.710;2022-12-07T05:34:37;119.87;;;46.90;;
21876;SDS011;11103;43.788;23.710;2022-12-07T05:37:03;142.03;;;52.73;;
21876;SDS011;11103;43.788;23.710;2022-12-07T05:39:28;174.00;;;62.47;;
21876;SDS011;11103;43.788;23.710;2022-12-07T05:41:54;137.40;;;53.00;;
21876;SDS011;11103;43.788;23.710;2022-12-07T05:44:40;127.73;;;49.10;;
21876;SDS011;11103;43.788;23.710;2022-12-07T05:47:08;120.60;;;42.47;;
21876;SDS011;11103;43.788;23.710;2022-12-07T05:49:33;101.27;;;39.03;;
21876;SDS011;11103;43.788;23.710;2022-12-07T05:51:59;89.30;;;35.77;;
21876;SDS011;11103;43.788;23.710;2022-12-07T05:54:25;86.60;;;33.13;;
21876;SDS011;11103;43.788;23.710;2022-12-07T05:56:50;67.60;;;33.13;;
21876;SDS011;11103;43.788;23.710;2022-12-07T05:59:16;79.83;;;32.87;;
21876;SDS011;11103;43.788;23.710;2022-12-07T06:02:10;72.50;;;32.83;;
21876;SDS011;11103;43.788;23.710;2022-12-07T06:04:38;76.03;;;32.20;;
21876;SDS011;11103;43.788;23.710;2022-12-07T06:07:07;81.37;;;33.77;;
21876;SDS011;11103;43.788;23.710;2022-12-07T06:09:34;86.87;;;36.10;;
21876;SDS011;11103;43.788;23.710;2022-12-07T06:12:00;99.03;;;38.90;;
21876;SDS011;11103;43.788;23.710;2022-12-07T06:14:44;106.10;;;41.70;;
21876;SDS011;11103;43.788;23.710;2022-12-07T06:17:10;113.10;;;45.00;;
21876;SDS011;11103;43.788;23.710;2022-12-07T06:19:37;117.47;;;44.30;;
21876;SDS011;11103;43.788;23.710;2022-12-07T06:22:02;105.17;;;44.33;;
21876;SDS011;11103;43.788;23.710;2022-12-07T06:24:29;101.10;;;41.30;;
21876;SDS011;11103;43.788;23.710;2022-12-07T06:26:55;107.00;;;41.87;;
21876;SDS011;11103;43.788;23.710;2022-12-07T06:29:21;84.50;;;35.23;;
21876;SDS011;11103;43.788;23.710;2022-12-07T06:31:47;84.43;;;35.17;;
21876;SDS011;11103;43.788;23.710;2022-12-07T06:34:14;68.27;;;33.73;;
21876;SDS011;11103;43.788;23.710;2022-12-07T06:36:41;67.80;;;30.17;;
21876;SDS011;11103;43.788;23.710;2022-12-07T06:39:07;71.00;;;31.10;;
21876;SDS011;11103;43.788;23.710;2022-12-07T06:41:39;70.00;;;31.23;;
21876;SDS011;11103;43.788;23.710;2022-12-07T06:44:05;67.27;;;30.13;;
21876;SDS011;11103;43.788;23.710;2022-12-07T06:46:31;69.50;;;30.17;;
21876;SDS011;11103;43.788;23.710;2022-12-07T06:48:57;70.27;;;30.03;;
21876;SDS011;11103;43.788;23.710;2022-12-07T06:51:23;71.63;;;31.23;;
21876;SDS011;11103;43.788;23.710;2022-12-07T06:53:48;72.50;;;30.53;;
21876;SDS011;11103;43.788;23.710;2022-12-07T06:56:14;62.43;;;26.10;;
21876;SDS011;11103;43.788;23.710;2022-12-07T06:58:39;60.37;;;28.83;;
21876;SDS011;11103;43.788;23.710;2022-12-07T07:01:12;61.73;;;27.17;;
21876;SDS011;11103;43.788;23.710;2022-12-07T07:03:39;66.80;;;28.63;;
21876;SDS011;11103;43.788;23.710;2022-12-07T07:06:05;67.57;;;28.80;;
21876;SDS011;11103;43.788;23.710;2022-12-07T07:08:32;59.17;;;26.30;;
21876;SDS011;11103;43.788;23.710;2022-12-07T07:10:58;51.43;;;23.90;;
21876;SDS011;11103;43.788;23.710;2022-12-07T07:13:24;57.77;;;25.80;;
21876;SDS011;11103;43.788;23.710;2022-12-07T07:15:49;56.67;;;24.83;;
21876;SDS011;11103;43.788;23.710;2022-12-07T07:18:15;60.00;;;26.03;;
21876;SDS011;11103;43.788;23.710;2022-12-07T07:20:40;58.90;;;25.23;;
21876;SDS011;11103;43.788;23.710;2022-12-07T07:23:06;57.00;;;25.93;;
21876;SDS011;11103;43.788;23.710;2022-12-07T07:25:32;60.53;;;25.70;;
21876;SDS011;11103;43.788;23.710;2022-12-07T07:27:58;68.73;;;27.37;;
21876;SDS011;11103;43.788;23.710;2022-12-07T07:30:24;65.63;;;27.27;;
21876;SDS011;11103;43.788;23.710;2022-12-07T07:32:49;60.50;;;26.67;;
21876;SDS011;11103;43.788;23.710;2022-12-07T07:35:16;66.93;;;28.47;;
21876;SDS011;11103;43.788;23.710;2022-12-07T07:37:41;60.87;;;27.20;;
21876;SDS011;11103;43.788;23.710;2022-12-07T07:40:07;67.87;;;28.47;;
21876;SDS011;11103;43.788;23.710;2022-12-07T07:42:33;75.57;;;31.67;;
21876;SDS011;11103;43.788;23.710;2022-12-07T07:44:59;68.43;;;29.30;;
21876;SDS011;11103;43.788;23.710;2022-12-07T07:47:24;72.00;;;28.23;;
21876;SDS011;11103;43.788;23.710;2022-12-07T07:49:50;73.67;;;29.20;;
21876;SDS011;11103;43.788;23.710;2022-12-07T07:52:15;72.67;;;30.57;;
21876;SDS011;11103;43.788;23.710;2022-12-07T07:54:40;68.43;;;29.60;;
21876;SDS011;11103;43.788;23.710;2022-12-07T07:57:06;60.53;;;27.13;;
21876;SDS011;11103;43.788;23.710;2022-12-07T07:59:31;63.20;;;27.93;;
21876;SDS011;11103;43.788;23.710;2022-12-07T08:01:57;65.23;;;29.23;;
21876;SDS011;11103;43.788;23.710;2022-12-07T08:04:22;63.97;;;27.10;;
21876;SDS011;11103;43.788;23.710;2022-12-07T08:06:48;54.50;;;25.73;;
21876;SDS011;11103;43.788;23.710;2022-12-07T08:09:13;54.17;;;25.70;;
21876;SDS011;11103;43.788;23.710;2022-12-07T08:11:39;50.50;;;24.33;;
21876;SDS011;11103;43.788;23.710;2022-12-07T08:14:04;51.77;;;26.43;;
21876;SDS011;11103;43.788;23.710;2022-12-07T08:16:29;50.23;;;25.50;;
21876;SDS011;11103;43.788;23.710;2022-12-07T08:18:55;49.87;;;24.63;;
21876;SDS011;11103;43.788;23.710;2022-12-07T08:21:21;54.23;;;26.13;;
21876;SDS011;11103;43.788;23.710;2022-12-07T08:23:47;62.00;;;26.47;;
21876;SDS011;11103;43.788;23.710;2022-12-07T08:26:13;58.77;;;25.53;;
21876;SDS011;11103;43.788;23.710;2022-12-07T08:28:40;53.70;;;25.97;;
21876;SDS011;11103;43.788;23.710;2022-12-07T08:31:11;53.13;;;23.50;;
21876;SDS011;11103;43.788;23.710;2022-12-07T08:33:38;52.57;;;24.03;;
21876;SDS011;11103;43.788;23.710;2022-12-07T08:36:07;47.83;;;23.70;;
21876;SDS011;11103;43.788;23.710;2022-12-07T08:38:35;58.20;;;23.33;;
21876;SDS011;11103;43.788;23.710;2022-12-07T08:41:03;47.20;;;22.83;;
21876;SDS011;11103;43.788;23.710;2022-12-07T08:43:29;51.70;;;23.10;;
21876;SDS011;11103;43.788;23.710;2022-12-07T08:46:06;50.43;;;23.33;;
21876;SDS011;11103;43.788;23.710;2022-12-07T08:48:43;45.13;;;22.20;;
21876;SDS011;11103;43.788;23.710;2022-12-07T08:51:13;45.53;;;22.63;;
21876;SDS011;11103;43.788;23.710;2022-12-07T08:53:39;52.73;;;24.30;;
21876;SDS011;11103;43.788;23.710;2022-12-07T08:56:05;46.10;;;22.40;;
21876;SDS011;11103;43.788;23.710;2022-12-07T08:58:32;50.03;;;23.37;;
21876;SDS011;11103;43.788;23.710;2022-12-07T09:00:58;47.23;;;22.00;;
21876;SDS011;11103;43.788;23.710;2022-12-07T09:03:24;49.67;;;21.67;;
21876;SDS011;11103;43.788;23.710;2022-12-07T09:05:49;49.90;;;23.27;;
21876;SDS011;11103;43.788;23.710;2022-12-07T09:08:14;47.83;;;21.97;;
21876;SDS011;11103;43.788;23.710;2022-12-07T09:10:40;46.43;;;21.50;;
21876;SDS011;11103;43.788;23.710;2022-12-07T09:13:06;44.37;;;23.23;;
21876;SDS011;11103;43.788;23.710;2022-12-07T09:15:31;41.93;;;20.90;;
21876;SDS011;11103;43.788;23.710;2022-12-07T09:17:57;48.50;;;23.57;;
21876;SDS011;11103;43.788;23.710;2022-12-07T09:20:22;48.63;;;24.57;;
21876;SDS011;11103;43.788;23.710;2022-12-07T09:22:48;40.70;;;19.57;;
21876;SDS011;11103;43.788;23.710;2022-12-07T09:25:13;42.23;;;21.77;;
21876;SDS011;11103;43.788;23.710;2022-12-07T09:27:39;41.07;;;20.07;;
21876;SDS011;11103;43.788;23.710;2022-12-07T09:30:05;38.53;;;19.27;;
21876;SDS011;11103;43.788;23.710;2022-12-07T09:32:34;37.80;;;21.77;;
21876;SDS011;11103;43.788;23.710;2022-12-07T09:34:59;44.43;;;21.13;;
21876;SDS011;11103;43.788;23.710;2022-12-07T09:37:25;40.63;;;21.20;;
21876;SDS011;11103;43.788;23.710;2022-12-07T09:39:51;38.30;;;20.70;;
21876;SDS011;11103;43.788;23.710;2022-12-07T09:42:29;44.47;;;21.97;;
21876;SDS011;11103;43.788;23.710;2022-12-07T09:45:00;41.63;;;20.67;;
21876;SDS011;11103;43.788;23.710;2022-12-07T09:47:27;44.27;;;21.07;;
21876;SDS011;11103;43.788;23.710;2022-12-07T09:49:55;49.23;;;23.40;;
21876;SDS011;11103;43.788;23.710;2022-12-07T09:52:28;47.47;;;23.37;;
21876;SDS011;11103;43.788;23.710;2022-12-07T09:54:54;49.37;;;23.27;;
21876;SDS011;11103;43.788;23.710;2022-12-07T09:57:21;53.57;;;25.77;;
21876;SDS011;11103;43.788;23.710;2022-12-07T09:59:54;47.23;;;23.67;;
21876;SDS011;11103;43.788;23.710;2022-12-07T10:05:07;46.23;;;22.93;;
21876;SDS011;11103;43.788;23.710;2022-12-07T10:07:38;48.23;;;22.80;;
21876;SDS011;11103;43.788;23.710;2022-12-07T10:10:04;46.43;;;22.00;;
21876;SDS011;11103;43.788;23.710;2022-12-07T10:12:52;39.60;;;20.33;;
21876;SDS011;11103;43.788;23.710;2022-12-07T10:15:19;45.37;;;21.57;;
21876;SDS011;11103;43.788;23.710;2022-12-07T10:17:48;41.53;;;20.20;;
21876;SDS011;11103;43.788;23.710;2022-12-07T10:22:57;43.57;;;21.70;;
21876;SDS011;11103;43.788;23.710;2022-12-07T10:25:24;37.57;;;19.90;;
21876;SDS011;11103;43.788;23.710;2022-12-07T10:27:59;48.80;;;22.43;;
21876;SDS011;11103;43.788;23.710;2022-12-07T10:30:50;43.00;;;22.30;;
21876;SDS011;11103;43.788;23.710;2022-12-07T10:36:01;46.63;;;23.13;;
21876;SDS011;11103;43.788;23.710;2022-12-07T10:44:27;47.23;;;24.07;;
21876;SDS011;11103;43.788;23.710;2022-12-07T10:49:38;46.00;;;23.27;;
21876;SDS011;11103;43.788;23.710;2022-12-07T11:00:59;55.33;;;26.90;;
21876;SDS011;11103;43.788;23.710;2022-12-07T11:04:01;52.40;;;27.30;;
21876;SDS011;11103;43.788;23.710;2022-12-07T11:06:39;52.80;;;26.77;;
21876;SDS011;11103;43.788;23.710;2022-12-07T11:12:26;51.63;;;25.37;;
21876;SDS011;11103;43.788;23.710;2022-12-07T11:17:55;49.17;;;25.93;;
21876;SDS011;11103;43.788;23.710;2022-12-07T11:25:58;46.90;;;25.23;;
21876;SDS011;11103;43.788;23.710;2022-12-07T11:28:33;53.20;;;26.30;;
21876;SDS011;11103;43.788;23.710;2022-12-07T11:38:57;63.53;;;34.63;;
21876;SDS011;11103;43.788;23.710;2022-12-07T11:41:35;47.97;;;25.20;;
21876;SDS011;11103;43.788;23.710;2022-12-07T11:44:15;47.33;;;25.53;;
21876;SDS011;11103;43.788;23.710;2022-12-07T11:46:58;44.50;;;23.63;;
21876;SDS011;11103;43.788;23.710;2022-12-07T11:51:58;45.87;;;24.07;;
21876;SDS011;11103;43.788;23.710;2022-12-07T11:54:28;43.47;;;23.83;;
21876;SDS011;11103;43.788;23.710;2022-12-07T11:57:02;42.17;;;22.70;;
21876;SDS011;11103;43.788;23.710;2022-12-07T11:59:36;42.87;;;22.10;;
21876;SDS011;11103;43.788;23.710;2022-12-07T12:05:14;41.40;;;22.43;;
21876;SDS011;11103;43.788;23.710;2022-12-07T12:07:43;41.40;;;23.17;;
21876;SDS011;11103;43.788;23.710;2022-12-07T12:12:46;37.13;;;21.20;;
21876;SDS011;11103;43.788;23.710;2022-12-07T12:15:16;37.53;;;20.80;;
21876;SDS011;11103;43.788;23.710;2022-12-07T12:20:28;39.43;;;19.73;;
21876;SDS011;11103;43.788;23.710;2022-12-07T12:23:21;39.97;;;20.50;;
21876;SDS011;11103;43.788;23.710;2022-12-07T12:25:46;39.53;;;20.90;;
21876;SDS011;11103;43.788;23.710;2022-12-07T12:33:56;39.87;;;20.43;;
21876;SDS011;11103;43.788;23.710;2022-12-07T12:46:45;39.00;;;20.47;;
21876;SDS011;11103;43.788;23.710;2022-12-07T12:54:25;37.00;;;20.73;;
21876;SDS011;11103;43.788;23.710;2022-12-07T12:59:47;39.90;;;19.90;;
21876;SDS011;11103;43.788;23.710;2022-12-07T13:10:27;36.27;;;20.27;;
21876;SDS011;11103;43.788;23.710;2022-12-07T13:15:46;38.17;;;20.50;;
21876;SDS011;11103;43.788;23.710;2022-12-07T13:24:07;36.57;;;19.67;;
21876;SDS011;11103;43.788;23.710;2022-12-07T13:26:17;37.30;;;20.53;;
21876;SDS011;11103;43.788;23.710;2022-12-07T13:31:47;36.03;;;20.73;;
21876;SDS011;11103;43.788;23.710;2022-12-07T13:34:31;40.83;;;21.20;;
21876;SDS011;11103;43.788;23.710;2022-12-07T13:39:58;41.13;;;21.50;;
21876;SDS011;11103;43.788;23.710;2022-12-07T13:44:55;36.90;;;21.20;;
21876;SDS011;11103;43.788;23.710;2022-12-07T13:47:31;38.03;;;22.77;;
21876;SDS011;11103;43.788;23.710;2022-12-07T13:50:23;40.73;;;22.07;;
21876;SDS011;11103;43.788;23.710;2022-12-07T13:52:48;40.37;;;23.17;;
21876;SDS011;11103;43.788;23.710;2022-12-07T13:55:15;39.90;;;22.53;;
21876;SDS011;11103;43.788;23.710;2022-12-07T13:57:42;42.90;;;23.73;;
21876;SDS011;11103;43.788;23.710;2022-12-07T14:00:16;43.83;;;22.37;;
21876;SDS011;11103;43.788;23.710;2022-12-07T14:03:04;39.57;;;22.33;;
21876;SDS011;11103;43.788;23.710;2022-12-07T14:06:03;42.60;;;23.30;;
21876;SDS011;11103;43.788;23.710;2022-12-07T14:08:32;44.83;;;23.67;;
21876;SDS011;11103;43.788;23.710;2022-12-07T14:10:58;39.47;;;23.67;;
21876;SDS011;11103;43.788;23.710;2022-12-07T14:16:00;42.40;;;23.07;;
21876;SDS011;11103;43.788;23.710;2022-12-07T14:21:06;86.37;;;46.60;;
21876;SDS011;11103;43.788;23.710;2022-12-07T14:23:39;87.77;;;50.57;;
21876;SDS011;11103;43.788;23.710;2022-12-07T14:26:12;101.63;;;59.63;;
21876;SDS011;11103;43.788;23.710;2022-12-07T14:28:40;99.03;;;53.10;;
21876;SDS011;11103;43.788;23.710;2022-12-07T14:31:11;69.13;;;39.53;;
21876;SDS011;11103;43.788;23.710;2022-12-07T14:33:45;60.07;;;32.63;;
21876;SDS011;11103;43.788;23.710;2022-12-07T14:36:11;44.47;;;26.63;;
21876;SDS011;11103;43.788;23.710;2022-12-07T14:38:37;44.07;;;25.70;;
21876;SDS011;11103;43.788;23.710;2022-12-07T14:41:04;46.10;;;25.10;;
21876;SDS011;11103;43.788;23.710;2022-12-07T14:43:49;43.07;;;24.87;;
21876;SDS011;11103;43.788;23.710;2022-12-07T14:46:14;44.50;;;23.87;;
21876;SDS011;11103;43.788;23.710;2022-12-07T14:48:40;47.40;;;24.37;;
21876;SDS011;11103;43.788;23.710;2022-12-07T14:51:05;44.47;;;25.37;;
21876;SDS011;11103;43.788;23.710;2022-12-07T14:53:36;45.47;;;25.60;;
21876;SDS011;11103;43.788;23.710;2022-12-07T14:56:05;75.27;;;42.47;;
21876;SDS011;11103;43.788;23.710;2022-12-07T14:58:31;64.40;;;37.70;;
21876;SDS011;11103;43.788;23.710;2022-12-07T15:00:57;49.07;;;28.00;;
21876;SDS011;11103;43.788;23.710;2022-12-07T15:03:23;45.90;;;26.03;;
21876;SDS011;11103;43.788;23.710;2022-12-07T15:05:49;45.77;;;24.67;;
21876;SDS011;11103;43.788;23.710;2022-12-07T15:08:15;39.50;;;23.13;;
21876;SDS011;11103;43.788;23.710;2022-12-07T15:10:40;35.57;;;21.27;;
21876;SDS011;11103;43.788;23.710;2022-12-07T15:13:06;30.60;;;19.07;;
21876;SDS011;11103;43.788;23.710;2022-12-07T15:15:51;33.50;;;19.73;;
21876;SDS011;11103;43.788;23.710;2022-12-07T15:18:18;29.40;;;18.27;;
21876;SDS011;11103;43.788;23.710;2022-12-07T15:20:44;33.17;;;18.60;;
21876;SDS011;11103;43.788;23.710;2022-12-07T15:23:11;42.77;;;25.87;;
21876;SDS011;11103;43.788;23.710;2022-12-07T15:25:40;45.47;;;25.53;;
21876;SDS011;11103;43.788;23.710;2022-12-07T15:28:06;34.57;;;21.10;;
21876;SDS011;11103;43.788;23.710;2022-12-07T15:30:31;38.80;;;21.73;;
21876;SDS011;11103;43.788;23.710;2022-12-07T15:32:57;28.50;;;18.97;;
21876;SDS011;11103;43.788;23.710;2022-12-07T15:35:22;55.73;;;37.47;;
21876;SDS011;11103;43.788;23.710;2022-12-07T15:37:48;41.03;;;27.60;;
21876;SDS011;11103;43.788;23.710;2022-12-07T15:40:15;31.60;;;21.53;;
21876;SDS011;11103;43.788;23.710;2022-12-07T15:42:41;33.50;;;20.40;;
21876;SDS011;11103;43.788;23.710;2022-12-07T15:45:12;29.40;;;17.87;;
21876;SDS011;11103;43.788;23.710;2022-12-07T15:47:42;28.43;;;18.23;;
21876;SDS011;11103;43.788;23.710;2022-12-07T15:50:12;27.27;;;18.00;;
21876;SDS011;11103;43.788;23.710;2022-12-07T15:52:40;34.23;;;23.17;;
21876;SDS011;11103;43.788;23.710;2022-12-07T15:55:06;42.73;;;28.23;;
21876;SDS011;11103;43.788;23.710;2022-12-07T15:57:32;47.93;;;27.30;;
21876;SDS011;11103;43.788;23.710;2022-12-07T16:00:00;61.83;;;38.67;;
21876;SDS011;11103;43.788;23.710;2022-12-07T16:02:27;26.53;;;18.27;;
21876;SDS011;11103;43.788;23.710;2022-12-07T16:04:52;25.80;;;17.20;;
21876;SDS011;11103;43.788;23.710;2022-12-07T16:07:18;25.73;;;16.80;;
21876;SDS011;11103;43.788;23.710;2022-12-07T16:09:44;23.20;;;16.70;;
21876;SDS011;11103;43.788;23.710;2022-12-07T16:12:11;25.03;;;17.03;;
21876;SDS011;11103;43.788;23.710;2022-12-07T16:14:37;26.37;;;16.87;;
21876;SDS011;11103;43.788;23.710;2022-12-07T16:17:05;24.27;;;15.60;;
21876;SDS011;11103;43.788;23.710;2022-12-07T16:19:31;22.97;;;15.27;;
21876;SDS011;11103;43.788;23.710;2022-12-07T16:21:57;24.13;;;15.07;;
21876;SDS011;11103;43.788;23.710;2022-12-07T16:24:24;25.07;;;15.13;;
21876;SDS011;11103;43.788;23.710;2022-12-07T16:26:49;24.30;;;15.83;;
21876;SDS011;11103;43.788;23.710;2022-12-07T16:29:16;29.77;;;19.70;;
21876;SDS011;11103;43.788;23.710;2022-12-07T16:31:42;31.60;;;18.33;;
21876;SDS011;11103;43.788;23.710;2022-12-07T16:34:08;25.53;;;16.10;;
21876;SDS011;11103;43.788;23.710;2022-12-07T16:36:34;28.40;;;18.03;;
21876;SDS011;11103;43.788;23.710;2022-12-07T16:38:59;24.80;;;17.07;;
21876;SDS011;11103;43.788;23.710;2022-12-07T16:41:25;29.43;;;18.90;;
21876;SDS011;11103;43.788;23.710;2022-12-07T16:43:51;29.17;;;18.87;;
21876;SDS011;11103;43.788;23.710;2022-12-07T16:46:16;26.83;;;18.57;;
21876;SDS011;11103;43.788;23.710;2022-12-07T16:48:42;32.57;;;19.17;;